Historyczne dane pomiarowe

Dodano dane terminowe – wersja testowa.

Dane z okresu 1951-2019

Wersja bazy: 1.34 [2019-03-16, lista zmian], aktualizacja planowana na 2019-04-15

Dane meteo z obszaru Polski uzyskane na podstawie danych udostępnionych przez Instytut Meteorologii i Gospodarki Wodnej – Państwowy Instytut Badawczy.

 

Wybierz Datę:    

       

TemperaturaWilgotnośćZachmurzenieWiatrCiśnienieWidzialnośćZjawiska
 Data    tng td wb rh cc ccl cl cm ch dir g1 g2 mslp ppp      
1999-08-14 00:00:00 10.4--- 8.9 9.690wxwx3wx--1014.6 989.8 0.0---wx
1999-08-14 01:00:00 10.0--- 8.5 9.290wxwx2wx--1014.5 989.6----wx
1999-08-14 02:00:00 9.4--- 7.9 8.690wxwxwx3wx--1014.4 989.5----wx
1999-08-14 03:00:00 9.6--- 8.5 9.093wxwxwx3wx--1014.2 989.3----wx
1999-08-14 04:00:00 9.0--- 7.4 8.290wxwxwx3wx--1014.2 989.3----wx
1999-08-14 05:00:00 9.8--- 8.3 9.090wxwxwx2wx--1014.3 989.4----wx
1999-08-14 06:00:00 11.8--- 8.8 10.282wxwxwxwx1wx--1014.3 989.6 0.0---wx
1999-08-14 07:00:00 14.0--- 8.7 11.170wxwxwxwx0wx--1014.2 989.7----wx
1999-08-14 08:00:00 16.3--- 8.5 12.060wxwxwxwx1wx--1013.8 989.5----wx
1999-08-14 09:00:00 18.4--- 8.9 13.154wxwxwx2wx--1013.1 989.0----wx
1999-08-14 10:00:00 19.4--- 7.8 13.047wxwxwx2wx--1012.6 988.6----wx
1999-08-14 11:00:00 20.2--- 6.8 12.942wxwxwxwx1wx--1011.9 988.0----wx
1999-08-14 12:00:00 20.9--- 7.0 13.341wxwxwxwx2wx--1011.3 987.4 0.0---wx
1999-08-14 13:00:00 21.4--- 9.8 14.748wxwxwxwx3wx--1010.7 986.9----wx
1999-08-14 14:00:00 21.5--- 6.4 13.338wxwxwxwx4wx--1010.3 986.5----wx
1999-08-14 15:00:00 21.9--- 5.5 13.134wxwxwx2wx--1009.9 986.1----wx
1999-08-14 16:00:00 21.6--- 6.3 13.337wxwxwx4wx--1009.5 985.7----wx
1999-08-14 17:00:00 20.6--- 8.3 13.745wxwxwxwx4wx--1009.3 985.4----wx
1999-08-14 18:00:00 18.1--- 8.3 12.753wxwxwxwx3wx--1009.6 985.5 0.0---wx
1999-08-14 19:00:00 15.8--- 8.3 11.761wxwxwx3wx--1009.7 985.4----wx
1999-08-14 20:00:00 15.2--- 8.0 11.362wxwx3wx--1009.6 985.3----wx
1999-08-14 21:00:00 13.7--- 8.9 11.173wxwx2wx--1009.5 985.1----wx
1999-08-14 22:00:00 13.2--- 8.6 10.773wxwx3wx--1009.2 984.7----wx
1999-08-14 23:00:00 12.5--- 8.8 10.578wxwxwx1wx--1008.8 984.3----wx

 

Źródłem pochodzenia danych jest Instytut Meteorologii i Gospodarki Wodnej – Państwowy Instytut Badawczy. Dane Instytutu Meteorologii i Gospodarki Wodnej – Państwowego Instytutu Badawczego zostały przetworzone.

Dane źródłowe można odnaleźć na stronie https://dane.imgw.pl